createdAt,value
2018-11-27T00:00:33.975Z,14.80
2018-11-27T00:03:05.197Z,15.20
2018-11-27T00:05:34.846Z,16.90
2018-11-27T00:08:03.831Z,13.37
2018-11-27T00:10:33.982Z,14.60
2018-11-27T00:13:02.556Z,17.20
2018-11-27T00:15:31.552Z,13.70
2018-11-27T00:18:00.250Z,15.10
2018-11-27T00:20:28.970Z,15.87
2018-11-27T00:22:57.665Z,14.90
2018-11-27T00:25:26.360Z,15.83
2018-11-27T00:27:55.022Z,14.87
2018-11-27T00:30:23.561Z,15.50
2018-11-27T00:32:52.365Z,13.97
2018-11-27T00:35:21.126Z,14.27
2018-11-27T00:37:49.818Z,13.83
2018-11-27T00:40:21.268Z,15.33
2018-11-27T00:42:50.056Z,13.90
2018-11-27T00:45:19.963Z,13.63
2018-11-27T00:47:49.442Z,13.50
2018-11-27T00:50:19.313Z,12.17
2018-11-27T00:52:47.889Z,12.47
2018-11-27T00:55:17.591Z,13.30
2018-11-27T00:57:47.503Z,12.60
2018-11-27T01:00:18.258Z,13.73
2018-11-27T01:02:47.081Z,14.27
2018-11-27T01:05:19.299Z,11.70
2018-11-27T01:07:48.009Z,12.77
2018-11-27T01:10:22.393Z,13.03
2018-11-27T01:12:51.194Z,12.77
2018-11-27T01:15:19.955Z,11.60
2018-11-27T01:17:51.753Z,14.33
2018-11-27T01:20:21.242Z,12.90
2018-11-27T01:22:49.822Z,12.53
2018-11-27T01:25:18.381Z,11.47
2018-11-27T01:27:46.937Z,12.10
2018-11-27T01:30:19.922Z,12.33
2018-11-27T01:32:48.825Z,12.43
2018-11-27T01:35:18.765Z,12.60
2018-11-27T01:37:48.110Z,12.60
2018-11-27T01:40:17.898Z,13.27
2018-11-27T01:42:47.374Z,13.13
2018-11-27T01:45:17.385Z,11.87
2018-11-27T01:47:46.412Z,10.90
2018-11-27T01:50:16.086Z,13.23
2018-11-27T01:52:44.961Z,13.10
2018-11-27T01:55:17.465Z,13.30
2018-11-27T01:57:46.195Z,13.40
2018-11-27T02:00:25.637Z,13.30
2018-11-27T02:02:55.265Z,12.33
2018-11-27T02:05:25.021Z,14.47
2018-11-27T02:07:54.116Z,13.73
2018-11-27T02:10:22.970Z,12.33
2018-11-27T02:12:52.655Z,13.23
2018-11-27T02:15:25.388Z,12.53
2018-11-27T02:17:54.061Z,13.43
2018-11-27T02:20:23.090Z,14.17
2018-11-27T02:22:51.681Z,13.70
2018-11-27T02:25:24.525Z,13.77
2018-11-27T02:27:53.148Z,13.60
2018-11-27T02:30:23.125Z,12.80
2018-11-27T02:32:52.114Z,13.20
2018-11-27T02:35:21.780Z,13.30
2018-11-27T02:37:54.343Z,12.60
2018-11-27T02:40:22.910Z,14.13
2018-11-27T02:42:51.595Z,14.77
2018-11-27T02:45:21.780Z,13.20
2018-11-27T02:47:51.391Z,14.93
2018-11-27T02:50:21.063Z,14.43
2018-11-27T02:52:49.677Z,13.67
2018-11-27T02:55:23.362Z,14.67
2018-11-27T02:57:52.290Z,13.80
2018-11-27T03:00:22.146Z,14.80
2018-11-27T03:02:51.062Z,14.97
2018-11-27T03:05:25.052Z,13.43
2018-11-27T03:07:53.635Z,15.30
2018-11-27T03:10:22.190Z,14.80
2018-11-27T03:12:50.713Z,14.83
2018-11-27T03:15:19.251Z,15.33
2018-11-27T03:17:47.794Z,15.23
2018-11-27T03:20:17.470Z,15.70
2018-11-27T03:22:46.213Z,14.07
2018-11-27T03:25:18.860Z,13.63
2018-11-27T03:27:48.552Z,15.17
2018-11-27T03:30:19.306Z,15.83
2018-11-27T03:32:48.014Z,14.73
2018-11-27T03:35:19.743Z,14.67
2018-11-27T03:37:48.933Z,15.50
2018-11-27T03:40:20.487Z,14.67
2018-11-27T03:42:49.306Z,16.50
2018-11-27T03:45:18.602Z,15.93
2018-11-27T03:47:47.330Z,16.30
2018-11-27T03:50:20.026Z,15.80
2018-11-27T03:52:48.769Z,13.70
2018-11-27T03:55:17.415Z,13.30
2018-11-27T03:57:46.090Z,14.87
2018-11-27T04:00:19.915Z,14.20
2018-11-27T04:02:50.854Z,14.37
2018-11-27T04:05:19.449Z,13.97
2018-11-27T04:07:48.022Z,15.80
2018-11-27T04:10:18.963Z,16.60
2018-11-27T04:12:47.717Z,15.10
2018-11-27T04:15:16.389Z,16.10
2018-11-27T04:17:44.925Z,16.53
2018-11-27T04:20:14.084Z,16.57
2018-11-27T04:22:43.633Z,17.20
2018-11-27T04:25:14.536Z,16.53
2018-11-27T04:27:43.649Z,15.43
2018-11-27T04:30:14.392Z,16.90
2018-11-27T04:32:43.238Z,14.73
2018-11-27T04:35:13.358Z,17.73
2018-11-27T04:37:42.014Z,16.67
2018-11-27T04:40:12.815Z,15.70
2018-11-27T04:42:41.425Z,14.30
2018-11-27T04:45:15.772Z,15.13
2018-11-27T04:47:44.310Z,16.83
2018-11-27T04:50:14.055Z,16.00
2018-11-27T04:52:43.049Z,14.23
2018-11-27T04:55:13.157Z,13.00
2018-11-27T04:57:42.241Z,12.70
2018-11-27T05:00:15.009Z,13.00
2018-11-27T05:02:43.678Z,14.83
2018-11-27T05:05:12.410Z,14.00
2018-11-27T05:07:41.198Z,13.80
2018-11-27T05:10:19.264Z,14.43
2018-11-27T05:12:48.058Z,16.80
2018-11-27T05:15:17.970Z,16.47
2018-11-27T05:17:48.258Z,15.43
2018-11-27T05:20:16.471Z,15.50
2018-11-27T05:22:46.010Z,18.17
2018-11-27T05:25:15.918Z,16.00
2018-11-27T05:27:46.765Z,15.90
2018-11-27T05:30:16.831Z,15.80
2018-11-27T05:32:45.615Z,16.57
2018-11-27T05:35:15.603Z,13.80
2018-11-27T05:37:45.661Z,17.30
2018-11-27T05:40:18.587Z,13.27
2018-11-27T05:42:48.160Z,15.57
2018-11-27T05:45:18.143Z,16.17
2018-11-27T05:47:47.064Z,15.47
2018-11-27T05:50:19.801Z,16.10
2018-11-27T05:52:48.586Z,15.90
2018-11-27T05:55:17.690Z,16.93
2018-11-27T05:57:51.413Z,16.77
2018-11-27T06:00:21.275Z,16.00
2018-11-27T06:02:51.516Z,16.43
2018-11-27T06:05:21.402Z,15.60
2018-11-27T06:07:50.517Z,17.00
2018-11-27T06:10:20.111Z,15.90
2018-11-27T06:12:48.746Z,14.53
2018-11-27T06:15:21.015Z,18.50
2018-11-27T06:17:52.033Z,16.00
2018-11-27T06:20:21.583Z,15.97
2018-11-27T06:22:50.729Z,14.53
2018-11-27T06:25:21.405Z,17.23
2018-11-27T06:27:52.883Z,16.63
2018-11-27T06:30:23.500Z,18.03
2018-11-27T06:32:52.120Z,17.97
2018-11-27T06:35:22.408Z,17.37
2018-11-27T06:37:51.183Z,16.27
2018-11-27T06:40:21.346Z,15.90
2018-11-27T06:42:50.084Z,15.27
2018-11-27T06:45:19.725Z,17.43
2018-11-27T06:47:49.577Z,15.53
2018-11-27T06:50:20.104Z,18.50
2018-11-27T06:52:49.079Z,16.50
2018-11-27T06:55:18.990Z,14.90
2018-11-27T06:57:47.667Z,14.00
2018-11-27T07:00:17.491Z,14.20
2018-11-27T07:02:46.336Z,16.10
2018-11-27T07:05:15.403Z,19.10
2018-11-27T07:07:44.179Z,20.73
2018-11-27T07:10:18.514Z,17.43
2018-11-27T07:12:48.061Z,16.93
2018-11-27T07:15:18.136Z,19.67
2018-11-27T07:17:46.800Z,18.97
2018-11-27T07:20:15.905Z,23.50
2018-11-27T07:22:44.600Z,19.73
2018-11-27T07:25:14.496Z,15.33
2018-11-27T07:27:47.385Z,16.90
2018-11-27T07:30:17.525Z,15.30
2018-11-27T07:32:46.179Z,16.50
2018-11-27T07:35:15.803Z,15.90
2018-11-27T07:37:44.617Z,15.10
2018-11-27T07:40:29.777Z,14.57
2018-11-27T07:43:01.795Z,17.13
2018-11-27T07:45:30.420Z,16.33
2018-11-27T07:47:59.261Z,16.73
2018-11-27T07:50:27.889Z,15.47
2018-11-27T07:52:56.644Z,17.10
2018-11-27T07:55:25.294Z,15.00
2018-11-27T07:57:54.666Z,16.17
2018-11-27T08:00:25.320Z,18.33
2018-11-27T08:02:55.246Z,15.23
2018-11-27T08:05:28.384Z,15.60
2018-11-27T08:07:57.854Z,15.10
2018-11-27T08:10:27.824Z,20.20
2018-11-27T08:12:56.416Z,16.73
2018-11-27T08:15:26.537Z,15.50
2018-11-27T08:17:55.297Z,15.07
2018-11-27T08:20:27.254Z,13.93
2018-11-27T08:22:56.074Z,15.23
2018-11-27T08:25:25.032Z,15.47
2018-11-27T08:27:53.924Z,15.57
2018-11-27T08:30:23.634Z,16.37
2018-11-27T08:32:53.266Z,15.30
2018-11-27T08:35:23.078Z,15.40
2018-11-27T08:37:53.137Z,15.70
2018-11-27T08:40:24.127Z,15.67
2018-11-27T08:42:53.589Z,15.43
2018-11-27T08:45:23.300Z,16.97
2018-11-27T08:47:52.994Z,16.50
2018-11-27T08:50:22.847Z,22.50
2018-11-27T08:52:56.886Z,16.00
2018-11-27T08:55:28.023Z,17.30
2018-11-27T08:57:57.326Z,16.70
2018-11-27T09:00:26.832Z,16.93
2018-11-27T09:02:55.759Z,17.47
2018-11-27T09:05:24.611Z,15.30
2018-11-27T09:07:53.476Z,16.00
2018-11-27T09:10:23.792Z,16.00
2018-11-27T09:12:53.038Z,17.27
2018-11-27T09:15:22.771Z,15.30
2018-11-27T09:18:24.249Z,16.80
2018-11-27T09:20:53.075Z,15.47
2018-11-27T09:23:21.938Z,18.63
2018-11-27T09:25:50.605Z,17.17
2018-11-27T09:28:19.633Z,17.13
2018-11-27T09:30:48.419Z,16.80
2018-11-27T09:33:16.996Z,15.20
2018-11-27T09:35:45.548Z,14.80
2018-11-27T09:38:14.511Z,14.07
2018-11-27T09:40:43.426Z,13.07
2018-11-27T09:43:12.622Z,13.23
2018-11-27T09:45:42.658Z,14.47
2018-11-27T09:48:11.281Z,23.97
2018-11-27T09:50:39.833Z,17.70
2018-11-27T09:53:10.937Z,16.33
2018-11-27T09:55:39.632Z,13.37
2018-11-27T09:58:08.638Z,17.70
2018-11-27T10:00:37.366Z,15.60
2018-11-27T10:03:10.607Z,16.90
2018-11-27T10:05:39.205Z,16.90
2018-11-27T10:08:08.788Z,15.67
2018-11-27T10:10:37.399Z,16.20
2018-11-27T10:13:07.195Z,16.70
2018-11-27T10:15:35.843Z,14.60
2018-11-27T10:18:04.433Z,15.50
2018-11-27T10:20:38.440Z,14.53
2018-11-27T10:23:10.318Z,14.77
2018-11-27T10:25:39.057Z,13.97
2018-11-27T10:28:08.007Z,14.80
2018-11-27T10:30:36.789Z,15.90
2018-11-27T10:33:07.769Z,15.30
2018-11-27T10:35:44.673Z,17.03
2018-11-27T10:38:13.244Z,11.90
2018-11-27T10:40:42.133Z,13.57
2018-11-27T10:43:10.825Z,13.67
2018-11-27T10:45:39.402Z,14.17
2018-11-27T10:48:08.207Z,14.60
2018-11-27T10:50:37.070Z,14.30
2018-11-27T10:53:07.599Z,13.63
2018-11-27T10:55:36.229Z,13.63
2018-11-27T10:58:05.425Z,13.90
2018-11-27T11:00:39.338Z,14.03
2018-11-27T11:03:40.417Z,13.50
2018-11-27T11:06:09.551Z,11.37
2018-11-27T11:08:38.188Z,13.27
2018-11-27T11:11:07.881Z,14.07
2018-11-27T11:13:36.705Z,14.33
2018-11-27T11:16:06.095Z,13.10
2018-11-27T11:18:35.201Z,14.20
2018-11-27T11:21:03.941Z,13.47
2018-11-27T11:23:32.464Z,12.00
2018-11-27T11:26:01.107Z,11.47
2018-11-27T11:28:31.222Z,13.30
2018-11-27T11:30:59.972Z,13.00
2018-11-27T11:33:28.553Z,12.87
2018-11-27T11:35:57.694Z,14.07
2018-11-27T11:38:26.233Z,18.27
2018-11-27T11:40:55.018Z,13.30
2018-11-27T11:43:23.754Z,13.70
2018-11-27T11:45:52.402Z,12.67
2018-11-27T11:48:21.177Z,12.80
2018-11-27T11:50:49.780Z,13.50
2018-11-27T11:53:19.253Z,12.93
2018-11-27T11:55:48.812Z,13.60
2018-11-27T11:58:17.660Z,12.73
2018-11-27T12:00:51.857Z,11.83
2018-11-27T12:03:20.481Z,13.20
2018-11-27T12:05:49.308Z,13.10
2018-11-27T12:08:17.934Z,14.27
2018-11-27T12:10:46.521Z,13.53
2018-11-27T12:13:15.294Z,15.13
2018-11-27T12:15:43.955Z,13.07
2018-11-27T12:18:12.545Z,14.23
2018-11-27T12:20:41.872Z,16.13
2018-11-27T12:23:11.797Z,14.07
2018-11-27T12:25:41.041Z,15.50
2018-11-27T12:28:14.720Z,14.70
2018-11-27T12:30:39.462Z,14.07
2018-11-27T12:33:08.406Z,16.33
2018-11-27T12:35:37.021Z,14.83
2018-11-27T12:38:05.889Z,14.40
2018-11-27T12:40:34.586Z,17.93
2018-11-27T12:43:03.246Z,16.47
2018-11-27T12:45:33.208Z,15.00
2018-11-27T12:48:03.438Z,14.83
2018-11-27T12:50:47.217Z,15.40
2018-11-27T12:53:17.279Z,13.73
2018-11-27T12:55:47.257Z,14.87
2018-11-27T12:58:15.976Z,12.13
2018-11-27T13:00:44.698Z,13.83
2018-11-27T13:03:13.357Z,12.13
2018-11-27T13:05:43.869Z,15.63
2018-11-27T13:08:17.015Z,13.43
2018-11-27T13:10:45.787Z,14.60
2018-11-27T13:13:14.596Z,14.20
2018-11-27T13:15:44.391Z,13.47
2018-11-27T13:18:13.013Z,15.33
2018-11-27T13:20:42.164Z,13.37
2018-11-27T13:23:10.987Z,14.03
2018-11-27T13:25:40.051Z,22.77
2018-11-27T13:28:11.399Z,15.33
2018-11-27T13:30:43.194Z,17.33
2018-11-27T13:33:16.559Z,16.40
2018-11-27T13:35:45.416Z,14.03
2018-11-27T13:38:14.286Z,14.30
2018-11-27T13:40:43.224Z,16.70
2018-11-27T13:43:17.425Z,14.20
2018-11-27T13:45:46.167Z,14.00
2018-11-27T13:48:15.090Z,12.50
2018-11-27T13:50:43.878Z,12.80
2018-11-27T13:53:12.617Z,12.80
2018-11-27T13:55:41.356Z,12.00
2018-11-27T13:58:10.345Z,14.27
2018-11-27T14:00:39.363Z,13.00
2018-11-27T14:03:10.754Z,11.67
2018-11-27T14:05:37.361Z,11.83
2018-11-27T14:08:07.882Z,12.30
2018-11-27T14:10:37.468Z,11.83
2018-11-27T14:13:07.644Z,11.70
2018-11-27T14:15:36.628Z,11.90
2018-11-27T14:18:05.819Z,14.30
2018-11-27T14:20:34.666Z,12.53
2018-11-27T14:23:03.505Z,12.37
2018-11-27T14:25:32.279Z,14.10
2018-11-27T14:28:01.055Z,13.60
2018-11-27T14:30:29.923Z,11.67
2018-11-27T14:32:58.740Z,13.00
2018-11-27T14:35:27.723Z,13.30
2018-11-27T14:37:56.485Z,13.80
2018-11-27T14:40:26.655Z,13.70
2018-11-27T14:42:55.586Z,13.07
2018-11-27T14:45:25.315Z,14.30
2018-11-27T14:47:55.267Z,15.10
2018-11-27T14:50:24.094Z,13.40
2018-11-27T14:52:53.046Z,13.13
2018-11-27T14:55:32.819Z,14.50
2018-11-27T14:58:01.606Z,13.53
2018-11-27T15:00:30.486Z,13.70
2018-11-27T15:02:59.161Z,14.27
2018-11-27T15:05:32.197Z,14.47
2018-11-27T15:08:01.443Z,15.07
2018-11-27T15:10:30.538Z,13.60
2018-11-27T15:12:59.703Z,11.80
2018-11-27T15:15:28.850Z,12.00
2018-11-27T15:18:04.595Z,12.37
2018-11-27T15:20:33.452Z,12.30
2018-11-27T15:23:02.125Z,12.60
2018-11-27T15:25:30.971Z,14.20
2018-11-27T15:28:00.158Z,12.90
2018-11-27T15:30:30.672Z,12.83
2018-11-27T15:33:00.613Z,12.00
2018-11-27T15:35:29.406Z,12.17
2018-11-27T15:37:58.332Z,12.90
2018-11-27T15:40:29.141Z,13.37
2018-11-27T15:42:58.506Z,12.07
2018-11-27T15:45:30.363Z,13.67
2018-11-27T15:47:59.434Z,12.77
2018-11-27T15:50:28.482Z,13.10
2018-11-27T15:52:57.157Z,12.50
2018-11-27T15:55:38.084Z,13.50
2018-11-27T15:58:11.993Z,11.37
2018-11-27T16:00:41.685Z,13.63
2018-11-27T16:03:10.862Z,14.10
2018-11-27T16:05:43.361Z,13.50
2018-11-27T16:08:12.394Z,12.83
2018-11-27T16:10:41.410Z,11.47
2018-11-27T16:13:10.453Z,12.53
2018-11-27T16:15:39.454Z,13.93
2018-11-27T16:18:08.966Z,12.03
2018-11-27T16:20:44.499Z,11.47
2018-11-27T16:23:13.294Z,10.17
2018-11-27T16:25:42.536Z,11.40
2018-11-27T16:28:11.385Z,12.17
2018-11-27T16:30:40.393Z,11.73
2018-11-27T16:33:09.145Z,11.43
2018-11-27T16:35:37.894Z,11.43
2018-11-27T16:38:07.292Z,12.83
2018-11-27T16:40:37.409Z,12.80
2018-11-27T16:43:06.508Z,12.37
2018-11-27T16:45:35.223Z,13.40
2018-11-27T16:48:04.046Z,13.53
2018-11-27T16:50:33.289Z,14.13
2018-11-27T16:53:02.239Z,12.20
2018-11-27T16:55:30.961Z,13.50
2018-11-27T16:57:59.756Z,13.77
2018-11-27T17:00:30.312Z,12.67
2018-11-27T17:03:00.221Z,13.47
2018-11-27T17:05:31.410Z,12.17
2018-11-27T17:08:00.132Z,13.30
2018-11-27T17:10:29.140Z,13.03
2018-11-27T17:12:58.488Z,13.83
2018-11-27T17:15:28.356Z,12.17
2018-11-27T17:17:57.386Z,13.30
2018-11-27T17:20:29.507Z,13.07
2018-11-27T17:22:59.526Z,14.20
2018-11-27T17:25:28.359Z,11.50
2018-11-27T17:28:02.737Z,12.13
2018-11-27T17:30:35.984Z,12.33
2018-11-27T17:33:08.733Z,14.10
2018-11-27T17:35:37.646Z,13.57
2018-11-27T17:38:06.699Z,16.57
2018-11-27T17:40:35.528Z,15.30
2018-11-27T17:43:04.586Z,14.53
2018-11-27T17:45:33.558Z,15.07
2018-11-27T17:48:02.326Z,15.40
2018-11-27T17:50:31.345Z,14.03
2018-11-27T17:53:00.133Z,13.67
2018-11-27T17:55:28.939Z,12.73
2018-11-27T17:57:57.915Z,13.63
2018-11-27T18:00:28.352Z,14.33
2018-11-27T18:02:59.253Z,14.37
2018-11-27T18:05:28.460Z,15.10
2018-11-27T18:07:57.858Z,14.03
2018-11-27T18:10:26.844Z,14.57
2018-11-27T18:12:56.206Z,14.73
2018-11-27T18:15:25.303Z,14.23
2018-11-27T18:17:54.406Z,15.67
2018-11-27T18:20:23.523Z,15.00
2018-11-27T18:22:52.839Z,15.47
2018-11-27T18:25:24.463Z,14.57
2018-11-27T18:27:55.518Z,15.17
2018-11-27T18:30:25.589Z,15.67
2018-11-27T18:32:54.487Z,14.20
2018-11-27T18:35:24.665Z,15.50
2018-11-27T18:37:54.223Z,14.97
2018-11-27T18:40:23.400Z,13.07
2018-11-27T18:42:53.054Z,14.03
2018-11-27T18:45:26.407Z,15.97
2018-11-27T18:47:57.955Z,16.57
2018-11-27T18:50:29.992Z,16.90
2018-11-27T18:52:59.477Z,16.17
2018-11-27T18:55:28.974Z,14.23
2018-11-27T18:57:58.219Z,14.50
2018-11-27T19:00:29.545Z,14.03
2018-11-27T19:02:58.746Z,16.83
2018-11-27T19:05:27.819Z,17.27
2018-11-27T19:07:57.112Z,16.40
2018-11-27T19:10:31.028Z,15.13
2018-11-27T19:13:00.010Z,14.70
2018-11-27T19:15:33.239Z,15.10
2018-11-27T19:18:04.211Z,14.40
2018-11-27T19:20:34.953Z,14.47
2018-11-27T19:23:04.649Z,14.43
2018-11-27T19:25:34.352Z,16.00
2018-11-27T19:28:03.650Z,14.10
2018-11-27T19:30:32.907Z,16.80
2018-11-27T19:33:02.010Z,16.00
2018-11-27T19:35:31.112Z,17.53
2018-11-27T19:37:59.965Z,16.67
2018-11-27T19:40:29.129Z,15.20
2018-11-27T19:42:58.471Z,17.30
2018-11-27T19:45:28.000Z,15.77
2018-11-27T19:47:57.576Z,16.90
2018-11-27T19:50:27.727Z,17.17
2018-11-27T19:52:58.776Z,19.90
2018-11-27T19:55:29.304Z,16.20
2018-11-27T19:58:01.640Z,15.90
2018-11-27T20:00:34.052Z,15.30
2018-11-27T20:03:04.730Z,14.27
2018-11-27T20:05:36.350Z,16.73
2018-11-27T20:08:08.335Z,17.53
2018-11-27T20:10:40.321Z,16.30
2018-11-27T20:13:09.993Z,16.87
2018-11-27T20:15:39.871Z,17.10
2018-11-27T20:18:09.343Z,16.13
2018-11-27T20:20:39.626Z,17.20
2018-11-27T20:23:11.243Z,18.30
2018-11-27T20:25:41.019Z,16.20
2018-11-27T20:28:13.260Z,16.13
2018-11-27T20:30:43.930Z,17.40
2018-11-27T20:33:15.477Z,17.27
2018-11-27T20:35:47.713Z,16.53
2018-11-27T20:38:19.220Z,14.73
2018-11-27T20:40:48.848Z,15.90
2018-11-27T20:43:20.286Z,14.90
2018-11-27T20:45:51.079Z,15.40
2018-11-27T20:48:23.289Z,16.77
2018-11-27T20:50:54.470Z,16.27
2018-11-27T20:53:24.722Z,15.83
2018-11-27T20:55:54.795Z,15.27
2018-11-27T20:58:27.014Z,15.23
2018-11-27T21:00:56.729Z,15.10
2018-11-27T21:03:26.840Z,17.10
2018-11-27T21:05:56.960Z,15.20
2018-11-27T21:08:27.692Z,15.57
2018-11-27T21:10:57.608Z,14.87
2018-11-27T21:13:27.740Z,16.60
2018-11-27T21:15:58.060Z,15.10
2018-11-27T21:18:26.824Z,14.70
2018-11-27T21:20:55.823Z,15.40
2018-11-27T21:23:26.995Z,15.03
2018-11-27T21:26:00.367Z,15.53
2018-11-27T21:28:30.636Z,14.60
2018-11-27T21:31:00.665Z,13.70
2018-11-27T21:33:30.511Z,15.07
2018-11-27T21:36:00.469Z,13.80
2018-11-27T21:38:30.349Z,14.53
2018-11-27T21:41:00.042Z,13.80
2018-11-27T21:43:29.588Z,14.53
2018-11-27T21:46:00.380Z,14.63
2018-11-27T21:48:29.109Z,13.80
2018-11-27T21:51:01.771Z,14.83
2018-11-27T21:53:30.839Z,25.37
2018-11-27T21:55:59.638Z,29.57
2018-11-27T21:58:28.808Z,21.40
2018-11-27T22:00:57.684Z,19.00
2018-11-27T22:03:26.797Z,17.43
2018-11-27T22:05:55.543Z,18.80
2018-11-27T22:08:24.363Z,16.83
2018-11-27T22:10:53.279Z,17.33
2018-11-27T22:13:22.029Z,15.57
2018-11-27T22:15:50.772Z,16.47
2018-11-27T22:18:19.492Z,16.37
2018-11-27T22:20:48.475Z,19.70
2018-11-27T22:23:17.125Z,18.13
2018-11-27T22:25:45.804Z,19.00
2018-11-27T22:28:14.672Z,17.00
2018-11-27T22:30:43.500Z,19.10
2018-11-27T22:33:12.246Z,17.73
2018-11-27T22:35:40.944Z,17.77
2018-11-27T22:38:09.622Z,17.67
2018-11-27T22:40:38.446Z,16.90
2018-11-27T22:43:08.124Z,15.40
2018-11-27T22:45:38.958Z,16.30
2018-11-27T22:48:08.963Z,15.80
2018-11-27T22:50:37.607Z,15.33
2018-11-27T22:53:07.522Z,16.50
2018-11-27T22:55:36.109Z,15.60
2018-11-27T22:58:05.684Z,15.33
2018-11-27T23:00:39.631Z,16.33
2018-11-27T23:03:08.263Z,15.60
2018-11-27T23:05:36.910Z,16.40
2018-11-27T23:08:05.870Z,14.93
2018-11-27T23:10:36.333Z,16.90
2018-11-27T23:13:05.463Z,15.37
2018-11-27T23:15:34.327Z,15.40
2018-11-27T23:18:03.261Z,14.97
2018-11-27T23:20:32.094Z,16.27
2018-11-27T23:23:00.679Z,16.80
2018-11-27T23:25:29.393Z,16.77
2018-11-27T23:27:58.062Z,14.63
2018-11-27T23:30:27.308Z,14.87
2018-11-27T23:32:55.889Z,15.40
2018-11-27T23:35:24.646Z,15.40
2018-11-27T23:37:53.250Z,16.10
2018-11-27T23:40:22.625Z,15.27
2018-11-27T23:42:51.366Z,15.93
2018-11-27T23:45:22.771Z,14.97
2018-11-27T23:47:51.489Z,15.43
2018-11-27T23:50:21.385Z,15.97
2018-11-27T23:52:50.115Z,15.97
2018-11-27T23:55:19.510Z,18.33
2018-11-27T23:57:48.346Z,14.23
